sensor_id;sensor_type;location;lat;lon;timestamp;temperature;humidity
44990;DHT22;30723;51.206;3.326;2023-05-10T00:00:53;13.80;99.90
44990;DHT22;30723;51.206;3.326;2023-05-10T00:03:20;13.70;99.90
44990;DHT22;30723;51.206;3.326;2023-05-10T00:05:46;13.80;99.90
44990;DHT22;30723;51.206;3.326;2023-05-10T00:08:12;13.70;99.90
44990;DHT22;30723;51.206;3.326;2023-05-10T00:10:39;13.80;99.90
44990;DHT22;30723;51.206;3.326;2023-05-10T00:13:07;13.80;99.90
44990;DHT22;30723;51.206;3.326;2023-05-10T00:15:33;13.90;99.90
44990;DHT22;30723;51.206;3.326;2023-05-10T00:18:00;13.90;99.90
44990;DHT22;30723;51.206;3.326;2023-05-10T00:20:27;13.80;99.90
44990;DHT22;30723;51.206;3.326;2023-05-10T00:22:54;13.80;99.90
44990;DHT22;30723;51.206;3.326;2023-05-10T00:25:21;13.80;99.90
44990;DHT22;30723;51.206;3.326;2023-05-10T00:27:50;13.70;99.90
44990;DHT22;30723;51.206;3.326;2023-05-10T00:30:16;13.70;99.90
44990;DHT22;30723;51.206;3.326;2023-05-10T00:32:43;13.70;99.90
44990;DHT22;30723;51.206;3.326;2023-05-10T00:35:10;13.70;99.90
44990;DHT22;30723;51.206;3.326;2023-05-10T00:37:37;13.70;99.90
44990;DHT22;30723;51.206;3.326;2023-05-10T00:40:05;13.60;99.90
44990;DHT22;30723;51.206;3.326;2023-05-10T00:42:32;13.60;99.90
44990;DHT22;30723;51.206;3.326;2023-05-10T00:44:58;13.70;99.90
44990;DHT22;30723;51.206;3.326;2023-05-10T00:47:25;13.60;99.90
44990;DHT22;30723;51.206;3.326;2023-05-10T00:49:51;13.50;99.90
44990;DHT22;30723;51.206;3.326;2023-05-10T00:52:17;13.40;99.90
44990;DHT22;30723;51.206;3.326;2023-05-10T00:54:43;13.40;99.90
44990;DHT22;30723;51.206;3.326;2023-05-10T00:57:10;13.40;99.90
44990;DHT22;30723;51.206;3.326;2023-05-10T00:59:36;13.40;99.90
44990;DHT22;30723;51.206;3.326;2023-05-10T01:02:03;13.40;99.90
44990;DHT22;30723;51.206;3.326;2023-05-10T01:04:31;13.40;99.90
44990;DHT22;30723;51.206;3.326;2023-05-10T01:06:57;13.40;99.90
44990;DHT22;30723;51.206;3.326;2023-05-10T01:09:24;13.50;99.90
44990;DHT22;30723;51.206;3.326;2023-05-10T01:11:52;13.40;99.90
44990;DHT22;30723;51.206;3.326;2023-05-10T01:14:20;13.40;99.90
44990;DHT22;30723;51.206;3.326;2023-05-10T01:16:48;13.30;99.90
44990;DHT22;30723;51.206;3.326;2023-05-10T01:19:23;13.30;99.90
44990;DHT22;30723;51.206;3.326;2023-05-10T01:22:25;13.30;99.90
44990;DHT22;30723;51.206;3.326;2023-05-10T01:33:55;13.30;99.90
44990;DHT22;30723;51.206;3.326;2023-05-10T01:36:40;13.40;99.90
44990;DHT22;30723;51.206;3.326;2023-05-10T01:39:46;13.30;99.90
44990;DHT22;30723;51.206;3.326;2023-05-10T01:42:21;13.30;99.90
44990;DHT22;30723;51.206;3.326;2023-05-10T01:47:58;13.40;99.90
44990;DHT22;30723;51.206;3.326;2023-05-10T01:50:27;13.40;99.90
44990;DHT22;30723;51.206;3.326;2023-05-10T01:52:57;13.40;99.90
44990;DHT22;30723;51.206;3.326;2023-05-10T01:55:27;13.40;99.90
44990;DHT22;30723;51.206;3.326;2023-05-10T01:58:15;13.50;99.90
44990;DHT22;30723;51.206;3.326;2023-05-10T02:00:44;13.60;99.90
44990;DHT22;30723;51.206;3.326;2023-05-10T02:03:12;13.50;99.90
44990;DHT22;30723;51.206;3.326;2023-05-10T02:05:40;13.60;99.90
44990;DHT22;30723;51.206;3.326;2023-05-10T02:08:08;13.60;99.90
44990;DHT22;30723;51.206;3.326;2023-05-10T02:10:36;13.60;99.90
44990;DHT22;30723;51.206;3.326;2023-05-10T02:13:05;13.50;99.90
44990;DHT22;30723;51.206;3.326;2023-05-10T02:15:33;13.50;99.90
44990;DHT22;30723;51.206;3.326;2023-05-10T02:18:03;13.50;99.90
44990;DHT22;30723;51.206;3.326;2023-05-10T02:20:32;13.30;99.90
44990;DHT22;30723;51.206;3.326;2023-05-10T02:23:00;13.30;99.90
44990;DHT22;30723;51.206;3.326;2023-05-10T02:25:29;13.20;99.90
44990;DHT22;30723;51.206;3.326;2023-05-10T02:27:56;13.30;99.90
44990;DHT22;30723;51.206;3.326;2023-05-10T02:30:24;13.40;99.90
44990;DHT22;30723;51.206;3.326;2023-05-10T02:32:52;13.40;99.90
44990;DHT22;30723;51.206;3.326;2023-05-10T02:35:20;13.40;99.90
44990;DHT22;30723;51.206;3.326;2023-05-10T02:37:48;13.40;99.90
44990;DHT22;30723;51.206;3.326;2023-05-10T02:40:15;13.40;99.90
44990;DHT22;30723;51.206;3.326;2023-05-10T02:42:43;13.40;99.90
44990;DHT22;30723;51.206;3.326;2023-05-10T02:45:17;13.40;99.90
44990;DHT22;30723;51.206;3.326;2023-05-10T02:47:43;13.30;99.90
44990;DHT22;30723;51.206;3.326;2023-05-10T02:50:11;13.30;99.90
44990;DHT22;30723;51.206;3.326;2023-05-10T02:52:47;13.30;99.90
44990;DHT22;30723;51.206;3.326;2023-05-10T02:55:19;13.40;99.90
44990;DHT22;30723;51.206;3.326;2023-05-10T02:57:52;13.50;99.90
44990;DHT22;30723;51.206;3.326;2023-05-10T03:00:20;13.40;99.90
44990;DHT22;30723;51.206;3.326;2023-05-10T03:02:47;13.40;99.90
44990;DHT22;30723;51.206;3.326;2023-05-10T03:05:13;13.20;99.90
44990;DHT22;30723;51.206;3.326;2023-05-10T03:07:40;13.20;99.90
44990;DHT22;30723;51.206;3.326;2023-05-10T03:10:08;13.30;99.90
44990;DHT22;30723;51.206;3.326;2023-05-10T03:18:22;13.30;99.90
44990;DHT22;30723;51.206;3.326;2023-05-10T03:20:51;13.30;99.90
44990;DHT22;30723;51.206;3.326;2023-05-10T03:26:07;13.30;99.90
44990;DHT22;30723;51.206;3.326;2023-05-10T03:28:34;13.20;99.90
44990;DHT22;30723;51.206;3.326;2023-05-10T03:31:04;13.30;99.90
44990;DHT22;30723;51.206;3.326;2023-05-10T03:33:32;13.30;99.90
44990;DHT22;30723;51.206;3.326;2023-05-10T03:35:58;13.50;99.90
44990;DHT22;30723;51.206;3.326;2023-05-10T03:38:24;13.50;99.90
44990;DHT22;30723;51.206;3.326;2023-05-10T03:40:50;13.50;99.90
44990;DHT22;30723;51.206;3.326;2023-05-10T03:43:16;13.40;99.90
44990;DHT22;30723;51.206;3.326;2023-05-10T03:45:42;13.40;99.90
44990;DHT22;30723;51.206;3.326;2023-05-10T03:48:08;13.40;99.90
44990;DHT22;30723;51.206;3.326;2023-05-10T03:50:35;13.40;99.90
44990;DHT22;30723;51.206;3.326;2023-05-10T03:53:02;13.30;99.90
44990;DHT22;30723;51.206;3.326;2023-05-10T03:55:28;13.30;99.90
44990;DHT22;30723;51.206;3.326;2023-05-10T03:57:55;13.30;99.90
44990;DHT22;30723;51.206;3.326;2023-05-10T04:00:30;13.20;99.90
44990;DHT22;30723;51.206;3.326;2023-05-10T04:02:57;13.10;99.90
44990;DHT22;30723;51.206;3.326;2023-05-10T04:05:24;13.00;99.90
44990;DHT22;30723;51.206;3.326;2023-05-10T04:07:51;12.90;99.90
44990;DHT22;30723;51.206;3.326;2023-05-10T04:10:17;13.00;99.90
44990;DHT22;30723;51.206;3.326;2023-05-10T04:12:44;13.00;99.90
44990;DHT22;30723;51.206;3.326;2023-05-10T04:15:11;13.00;99.90
44990;DHT22;30723;51.206;3.326;2023-05-10T04:17:38;13.10;99.90
44990;DHT22;30723;51.206;3.326;2023-05-10T04:20:07;13.10;99.90
44990;DHT22;30723;51.206;3.326;2023-05-10T04:22:34;13.20;99.90
44990;DHT22;30723;51.206;3.326;2023-05-10T04:25:01;13.20;99.90
44990;DHT22;30723;51.206;3.326;2023-05-10T04:27:28;13.30;99.90
44990;DHT22;30723;51.206;3.326;2023-05-10T04:29:53;13.40;99.90
44990;DHT22;30723;51.206;3.326;2023-05-10T04:32:19;13.30;99.90
44990;DHT22;30723;51.206;3.326;2023-05-10T04:34:46;13.20;99.90
44990;DHT22;30723;51.206;3.326;2023-05-10T04:37:13;13.20;99.90
44990;DHT22;30723;51.206;3.326;2023-05-10T04:39:40;13.20;99.90
44990;DHT22;30723;51.206;3.326;2023-05-10T04:42:06;13.20;99.90
44990;DHT22;30723;51.206;3.326;2023-05-10T04:44:33;13.30;99.90
44990;DHT22;30723;51.206;3.326;2023-05-10T04:47:01;13.30;99.90
44990;DHT22;30723;51.206;3.326;2023-05-10T04:49:29;13.30;99.90
44990;DHT22;30723;51.206;3.326;2023-05-10T04:51:56;13.40;99.90
44990;DHT22;30723;51.206;3.326;2023-05-10T04:54:22;13.40;99.90
44990;DHT22;30723;51.206;3.326;2023-05-10T04:56:47;13.40;99.90
44990;DHT22;30723;51.206;3.326;2023-05-10T04:59:14;13.40;99.90
44990;DHT22;30723;51.206;3.326;2023-05-10T05:01:41;13.50;99.90
44990;DHT22;30723;51.206;3.326;2023-05-10T05:04:07;13.50;99.90
44990;DHT22;30723;51.206;3.326;2023-05-10T05:06:35;13.50;99.90
44990;DHT22;30723;51.206;3.326;2023-05-10T05:09:01;13.50;99.90
44990;DHT22;30723;51.206;3.326;2023-05-10T05:11:28;13.60;99.90
44990;DHT22;30723;51.206;3.326;2023-05-10T05:13:54;13.60;99.90
44990;DHT22;30723;51.206;3.326;2023-05-10T05:16:21;13.60;99.90
44990;DHT22;30723;51.206;3.326;2023-05-10T05:18:48;13.70;99.90
44990;DHT22;30723;51.206;3.326;2023-05-10T05:21:18;13.70;99.90
44990;DHT22;30723;51.206;3.326;2023-05-10T05:23:45;13.80;99.90
44990;DHT22;30723;51.206;3.326;2023-05-10T05:26:12;13.70;99.90
44990;DHT22;30723;51.206;3.326;2023-05-10T05:28:39;13.90;99.90
44990;DHT22;30723;51.206;3.326;2023-05-10T05:31:06;14.10;99.90
44990;DHT22;30723;51.206;3.326;2023-05-10T05:33:36;14.20;99.90
44990;DHT22;30723;51.206;3.326;2023-05-10T05:36:05;14.20;99.90
44990;DHT22;30723;51.206;3.326;2023-05-10T05:38:32;14.30;99.90
44990;DHT22;30723;51.206;3.326;2023-05-10T05:40:59;14.30;99.90
44990;DHT22;30723;51.206;3.326;2023-05-10T05:43:25;14.40;99.90
44990;DHT22;30723;51.206;3.326;2023-05-10T05:45:56;14.30;99.90
44990;DHT22;30723;51.206;3.326;2023-05-10T05:48:24;14.30;99.90
44990;DHT22;30723;51.206;3.326;2023-05-10T05:50:55;14.30;99.90
44990;DHT22;30723;51.206;3.326;2023-05-10T05:53:22;14.30;99.90
44990;DHT22;30723;51.206;3.326;2023-05-10T05:55:56;14.40;99.90
44990;DHT22;30723;51.206;3.326;2023-05-10T05:58:23;14.40;99.90
44990;DHT22;30723;51.206;3.326;2023-05-10T06:00:50;14.40;99.90
44990;DHT22;30723;51.206;3.326;2023-05-10T06:03:18;14.50;99.90
44990;DHT22;30723;51.206;3.326;2023-05-10T06:05:45;14.50;99.90
44990;DHT22;30723;51.206;3.326;2023-05-10T06:08:12;14.60;99.90
44990;DHT22;30723;51.206;3.326;2023-05-10T06:10:38;14.80;99.90
44990;DHT22;30723;51.206;3.326;2023-05-10T06:13:05;14.90;99.90
44990;DHT22;30723;51.206;3.326;2023-05-10T06:15:32;15.00;99.90
44990;DHT22;30723;51.206;3.326;2023-05-10T06:17:59;15.10;99.90
44990;DHT22;30723;51.206;3.326;2023-05-10T06:20:26;15.20;99.90
44990;DHT22;30723;51.206;3.326;2023-05-10T06:22:52;15.30;99.90
44990;DHT22;30723;51.206;3.326;2023-05-10T06:25:18;15.20;99.90
44990;DHT22;30723;51.206;3.326;2023-05-10T06:27:53;15.10;99.90
44990;DHT22;30723;51.206;3.326;2023-05-10T06:30:24;15.30;99.90
44990;DHT22;30723;51.206;3.326;2023-05-10T06:32:53;15.50;99.90
44990;DHT22;30723;51.206;3.326;2023-05-10T06:35:21;15.40;99.90
44990;DHT22;30723;51.206;3.326;2023-05-10T06:37:48;15.20;99.90
44990;DHT22;30723;51.206;3.326;2023-05-10T06:40:15;15.40;99.90
44990;DHT22;30723;51.206;3.326;2023-05-10T06:42:42;15.60;99.90
44990;DHT22;30723;51.206;3.326;2023-05-10T06:45:10;15.70;99.90
44990;DHT22;30723;51.206;3.326;2023-05-10T06:47:36;15.80;99.90
44990;DHT22;30723;51.206;3.326;2023-05-10T06:50:02;15.90;99.90
44990;DHT22;30723;51.206;3.326;2023-05-10T06:52:28;15.80;99.90
44990;DHT22;30723;51.206;3.326;2023-05-10T06:54:54;15.60;99.90
44990;DHT22;30723;51.206;3.326;2023-05-10T06:57:21;15.60;99.90
44990;DHT22;30723;51.206;3.326;2023-05-10T06:59:47;15.60;99.90
44990;DHT22;30723;51.206;3.326;2023-05-10T07:02:13;15.80;99.90
44990;DHT22;30723;51.206;3.326;2023-05-10T07:04:41;15.80;99.90
44990;DHT22;30723;51.206;3.326;2023-05-10T07:07:08;16.00;99.90
44990;DHT22;30723;51.206;3.326;2023-05-10T07:09:34;15.90;99.90
44990;DHT22;30723;51.206;3.326;2023-05-10T07:12:01;15.80;99.90
44990;DHT22;30723;51.206;3.326;2023-05-10T07:14:29;15.80;99.90
44990;DHT22;30723;51.206;3.326;2023-05-10T07:16:54;15.80;99.90
44990;DHT22;30723;51.206;3.326;2023-05-10T07:19:20;15.90;99.90
44990;DHT22;30723;51.206;3.326;2023-05-10T07:21:47;15.90;99.90
44990;DHT22;30723;51.206;3.326;2023-05-10T07:24:14;15.90;99.90
44990;DHT22;30723;51.206;3.326;2023-05-10T07:26:41;15.90;99.90
44990;DHT22;30723;51.206;3.326;2023-05-10T07:29:07;15.80;99.90
44990;DHT22;30723;51.206;3.326;2023-05-10T07:31:33;15.70;99.90
44990;DHT22;30723;51.206;3.326;2023-05-10T07:33:59;15.70;99.90
44990;DHT22;30723;51.206;3.326;2023-05-10T07:36:26;15.70;99.90
44990;DHT22;30723;51.206;3.326;2023-05-10T07:38:52;15.90;99.90
44990;DHT22;30723;51.206;3.326;2023-05-10T07:41:19;16.10;99.90
44990;DHT22;30723;51.206;3.326;2023-05-10T07:43:47;16.20;99.90
44990;DHT22;30723;51.206;3.326;2023-05-10T07:46:14;16.20;99.90
44990;DHT22;30723;51.206;3.326;2023-05-10T07:48:40;16.30;99.90
44990;DHT22;30723;51.206;3.326;2023-05-10T07:51:06;16.40;99.90
44990;DHT22;30723;51.206;3.326;2023-05-10T07:53:34;16.40;99.90
44990;DHT22;30723;51.206;3.326;2023-05-10T07:58:49;16.40;99.90
44990;DHT22;30723;51.206;3.326;2023-05-10T08:01:15;16.60;99.90
44990;DHT22;30723;51.206;3.326;2023-05-10T08:03:42;17.10;99.90
44990;DHT22;30723;51.206;3.326;2023-05-10T08:06:09;17.70;99.90
44990;DHT22;30723;51.206;3.326;2023-05-10T08:08:35;18.10;99.90
44990;DHT22;30723;51.206;3.326;2023-05-10T08:11:03;18.60;99.90
44990;DHT22;30723;51.206;3.326;2023-05-10T08:13:30;19.30;99.90
44990;DHT22;30723;51.206;3.326;2023-05-10T08:15:57;19.40;99.90
44990;DHT22;30723;51.206;3.326;2023-05-10T08:18:23;18.90;99.90
44990;DHT22;30723;51.206;3.326;2023-05-10T08:20:50;18.20;99.90
44990;DHT22;30723;51.206;3.326;2023-05-10T08:23:15;18.00;99.90
44990;DHT22;30723;51.206;3.326;2023-05-10T08:25:41;18.40;99.90
44990;DHT22;30723;51.206;3.326;2023-05-10T08:28:08;19.10;99.90
44990;DHT22;30723;51.206;3.326;2023-05-10T08:30:34;20.60;99.90
44990;DHT22;30723;51.206;3.326;2023-05-10T08:33:00;22.40;99.90
44990;DHT22;30723;51.206;3.326;2023-05-10T08:35:25;23.00;99.90
44990;DHT22;30723;51.206;3.326;2023-05-10T08:37:52;23.10;99.90
44990;DHT22;30723;51.206;3.326;2023-05-10T08:40:19;22.20;99.90
44990;DHT22;30723;51.206;3.326;2023-05-10T08:43:11;21.30;99.90
44990;DHT22;30723;51.206;3.326;2023-05-10T08:45:39;20.60;99.90
44990;DHT22;30723;51.206;3.326;2023-05-10T08:48:06;20.00;99.90
44990;DHT22;30723;51.206;3.326;2023-05-10T08:50:37;19.60;99.90
44990;DHT22;30723;51.206;3.326;2023-05-10T08:53:10;19.30;99.90
44990;DHT22;30723;51.206;3.326;2023-05-10T08:55:37;19.20;99.90
44990;DHT22;30723;51.206;3.326;2023-05-10T08:58:05;19.20;99.90
44990;DHT22;30723;51.206;3.326;2023-05-10T09:00:32;19.20;99.90
44990;DHT22;30723;51.206;3.326;2023-05-10T09:03:00;19.20;99.90
44990;DHT22;30723;51.206;3.326;2023-05-10T09:05:28;19.10;99.90
44990;DHT22;30723;51.206;3.326;2023-05-10T09:07:55;19.10;99.90
44990;DHT22;30723;51.206;3.326;2023-05-10T09:10:22;19.00;99.90
44990;DHT22;30723;51.206;3.326;2023-05-10T09:12:50;18.90;99.90
44990;DHT22;30723;51.206;3.326;2023-05-10T09:15:17;18.80;99.90
44990;DHT22;30723;51.206;3.326;2023-05-10T09:17:44;18.50;99.90
44990;DHT22;30723;51.206;3.326;2023-05-10T09:20:12;18.20;99.90
44990;DHT22;30723;51.206;3.326;2023-05-10T09:22:38;18.10;99.90
44990;DHT22;30723;51.206;3.326;2023-05-10T09:27:35;18.00;99.90
44990;DHT22;30723;51.206;3.326;2023-05-10T09:30:04;17.90;99.90
44990;DHT22;30723;51.206;3.326;2023-05-10T09:32:45;17.50;99.90
44990;DHT22;30723;51.206;3.326;2023-05-10T09:35:18;17.10;99.90
44990;DHT22;30723;51.206;3.326;2023-05-10T09:37:46;16.90;99.90
44990;DHT22;30723;51.206;3.326;2023-05-10T09:40:16;16.80;99.90
44990;DHT22;30723;51.206;3.326;2023-05-10T09:42:53;16.70;99.90
44990;DHT22;30723;51.206;3.326;2023-05-10T09:45:22;16.60;99.90
44990;DHT22;30723;51.206;3.326;2023-05-10T09:47:49;16.60;99.90
44990;DHT22;30723;51.206;3.326;2023-05-10T09:50:16;16.80;99.90
44990;DHT22;30723;51.206;3.326;2023-05-10T09:52:57;17.10;99.90
44990;DHT22;30723;51.206;3.326;2023-05-10T09:58:05;17.30;99.90
44990;DHT22;30723;51.206;3.326;2023-05-10T10:00:37;17.40;99.90
44990;DHT22;30723;51.206;3.326;2023-05-10T10:03:05;17.40;99.90
44990;DHT22;30723;51.206;3.326;2023-05-10T10:05:34;17.60;99.90
44990;DHT22;30723;51.206;3.326;2023-05-10T10:08:02;17.70;99.90
44990;DHT22;30723;51.206;3.326;2023-05-10T10:10:30;17.70;99.90
44990;DHT22;30723;51.206;3.326;2023-05-10T10:12:57;17.60;99.90
44990;DHT22;30723;51.206;3.326;2023-05-10T10:15:24;17.30;99.90
44990;DHT22;30723;51.206;3.326;2023-05-10T10:17:52;17.10;99.90
44990;DHT22;30723;51.206;3.326;2023-05-10T10:20:20;17.00;99.90
44990;DHT22;30723;51.206;3.326;2023-05-10T10:22:48;16.90;99.90
44990;DHT22;30723;51.206;3.326;2023-05-10T10:25:17;16.80;99.90
44990;DHT22;30723;51.206;3.326;2023-05-10T10:30:28;16.90;99.90
44990;DHT22;30723;51.206;3.326;2023-05-10T10:33:26;17.20;99.90
44990;DHT22;30723;51.206;3.326;2023-05-10T10:35:59;17.30;99.90
44990;DHT22;30723;51.206;3.326;2023-05-10T10:38:36;17.40;99.90
44990;DHT22;30723;51.206;3.326;2023-05-10T10:44:34;17.20;99.90
44990;DHT22;30723;51.206;3.326;2023-05-10T10:49:48;17.30;99.90
44990;DHT22;30723;51.206;3.326;2023-05-10T10:52:33;17.20;99.90
44990;DHT22;30723;51.206;3.326;2023-05-10T10:57:43;17.20;99.90
44990;DHT22;30723;51.206;3.326;2023-05-10T11:00:33;17.20;99.90
44990;DHT22;30723;51.206;3.326;2023-05-10T11:03:03;17.50;99.90
44990;DHT22;30723;51.206;3.326;2023-05-10T11:05:48;17.80;99.90
44990;DHT22;30723;51.206;3.326;2023-05-10T11:08:34;17.80;99.90
44990;DHT22;30723;51.206;3.326;2023-05-10T11:16:42;18.60;99.90
44990;DHT22;30723;51.206;3.326;2023-05-10T11:19:14;18.80;99.90
44990;DHT22;30723;51.206;3.326;2023-05-10T11:21:52;18.90;99.90
44990;DHT22;30723;51.206;3.326;2023-05-10T11:24:37;19.10;99.90
44990;DHT22;30723;51.206;3.326;2023-05-10T11:27:05;20.20;99.90
44990;DHT22;30723;51.206;3.326;2023-05-10T11:29:32;20.30;99.90
44990;DHT22;30723;51.206;3.326;2023-05-10T11:31:59;20.10;99.90
44990;DHT22;30723;51.206;3.326;2023-05-10T11:34:27;19.70;99.90
44990;DHT22;30723;51.206;3.326;2023-05-10T11:36:56;19.00;99.90
44990;DHT22;30723;51.206;3.326;2023-05-10T11:39:27;19.10;99.90
44990;DHT22;30723;51.206;3.326;2023-05-10T11:41:55;19.60;99.90
44990;DHT22;30723;51.206;3.326;2023-05-10T11:44:21;19.80;99.90
44990;DHT22;30723;51.206;3.326;2023-05-10T11:46:50;20.00;99.90
44990;DHT22;30723;51.206;3.326;2023-05-10T11:49:17;20.30;99.90
44990;DHT22;30723;51.206;3.326;2023-05-10T11:51:44;19.70;99.90
44990;DHT22;30723;51.206;3.326;2023-05-10T11:54:11;19.10;99.90
44990;DHT22;30723;51.206;3.326;2023-05-10T11:56:39;18.70;99.90
44990;DHT22;30723;51.206;3.326;2023-05-10T11:59:06;19.10;99.90
44990;DHT22;30723;51.206;3.326;2023-05-10T12:01:34;19.40;99.90
44990;DHT22;30723;51.206;3.326;2023-05-10T12:04:01;19.40;99.90
44990;DHT22;30723;51.206;3.326;2023-05-10T12:06:39;19.50;99.90
44990;DHT22;30723;51.206;3.326;2023-05-10T12:09:07;19.90;99.90
44990;DHT22;30723;51.206;3.326;2023-05-10T12:11:40;20.20;99.90
44990;DHT22;30723;51.206;3.326;2023-05-10T12:14:08;20.20;99.90
44990;DHT22;30723;51.206;3.326;2023-05-10T12:16:35;20.00;99.90
44990;DHT22;30723;51.206;3.326;2023-05-10T12:19:02;20.00;99.90
44990;DHT22;30723;51.206;3.326;2023-05-10T12:21:29;19.70;99.90
44990;DHT22;30723;51.206;3.326;2023-05-10T12:23:59;19.70;99.90
44990;DHT22;30723;51.206;3.326;2023-05-10T12:26:29;19.30;99.90
44990;DHT22;30723;51.206;3.326;2023-05-10T12:29:12;18.70;99.90
44990;DHT22;30723;51.206;3.326;2023-05-10T12:31:56;18.40;99.90
44990;DHT22;30723;51.206;3.326;2023-05-10T12:34:30;18.20;99.90
44990;DHT22;30723;51.206;3.326;2023-05-10T12:36:57;18.30;99.90
44990;DHT22;30723;51.206;3.326;2023-05-10T12:39:25;18.60;99.90
44990;DHT22;30723;51.206;3.326;2023-05-10T12:41:52;19.30;99.90
44990;DHT22;30723;51.206;3.326;2023-05-10T12:44:18;19.80;99.90
44990;DHT22;30723;51.206;3.326;2023-05-10T12:46:45;20.10;99.90
44990;DHT22;30723;51.206;3.326;2023-05-10T12:49:12;20.20;99.90
44990;DHT22;30723;51.206;3.326;2023-05-10T12:51:39;20.20;99.90
44990;DHT22;30723;51.206;3.326;2023-05-10T12:54:06;20.10;99.90
44990;DHT22;30723;51.206;3.326;2023-05-10T12:56:31;19.80;99.90
44990;DHT22;30723;51.206;3.326;2023-05-10T12:58:58;20.00;99.90
44990;DHT22;30723;51.206;3.326;2023-05-10T13:01:24;20.70;99.90
44990;DHT22;30723;51.206;3.326;2023-05-10T13:03:52;21.90;99.90
44990;DHT22;30723;51.206;3.326;2023-05-10T13:06:19;22.00;99.90
44990;DHT22;30723;51.206;3.326;2023-05-10T13:08:45;22.70;99.90
44990;DHT22;30723;51.206;3.326;2023-05-10T13:11:10;23.80;99.90
44990;DHT22;30723;51.206;3.326;2023-05-10T13:13:37;23.60;99.90
44990;DHT22;30723;51.206;3.326;2023-05-10T13:16:05;23.10;99.90
44990;DHT22;30723;51.206;3.326;2023-05-10T13:18:32;24.30;99.90
44990;DHT22;30723;51.206;3.326;2023-05-10T13:20:58;24.40;99.90
44990;DHT22;30723;51.206;3.326;2023-05-10T13:23:25;23.90;99.90
44990;DHT22;30723;51.206;3.326;2023-05-10T13:25:52;23.70;99.90
44990;DHT22;30723;51.206;3.326;2023-05-10T13:28:19;23.80;99.90
44990;DHT22;30723;51.206;3.326;2023-05-10T13:30:46;23.50;99.90
44990;DHT22;30723;51.206;3.326;2023-05-10T13:33:12;23.00;99.90
44990;DHT22;30723;51.206;3.326;2023-05-10T13:35:39;23.30;99.90
44990;DHT22;30723;51.206;3.326;2023-05-10T13:38:06;22.60;99.90
44990;DHT22;30723;51.206;3.326;2023-05-10T13:40:34;21.80;99.90
44990;DHT22;30723;51.206;3.326;2023-05-10T13:43:01;21.10;99.90
44990;DHT22;30723;51.206;3.326;2023-05-10T13:45:28;21.50;99.90
44990;DHT22;30723;51.206;3.326;2023-05-10T13:47:55;22.40;99.90
44990;DHT22;30723;51.206;3.326;2023-05-10T13:50:22;22.40;99.90
44990;DHT22;30723;51.206;3.326;2023-05-10T13:52:48;22.70;99.90
44990;DHT22;30723;51.206;3.326;2023-05-10T13:55:15;23.80;99.90
44990;DHT22;30723;51.206;3.326;2023-05-10T13:57:42;24.30;99.90
44990;DHT22;30723;51.206;3.326;2023-05-10T14:00:11;24.70;99.90
44990;DHT22;30723;51.206;3.326;2023-05-10T14:02:37;25.00;99.90
44990;DHT22;30723;51.206;3.326;2023-05-10T14:05:06;24.30;99.90
44990;DHT22;30723;51.206;3.326;2023-05-10T14:07:33;23.90;99.90
44990;DHT22;30723;51.206;3.326;2023-05-10T14:10:00;23.70;99.90
44990;DHT22;30723;51.206;3.326;2023-05-10T14:12:26;23.40;99.90
44990;DHT22;30723;51.206;3.326;2023-05-10T14:14:53;22.80;99.90
44990;DHT22;30723;51.206;3.326;2023-05-10T14:17:23;22.20;99.90
44990;DHT22;30723;51.206;3.326;2023-05-10T14:19:50;22.10;99.90
44990;DHT22;30723;51.206;3.326;2023-05-10T14:22:17;21.90;99.90
44990;DHT22;30723;51.206;3.326;2023-05-10T14:24:44;22.00;99.90
44990;DHT22;30723;51.206;3.326;2023-05-10T14:27:13;21.40;99.90
44990;DHT22;30723;51.206;3.326;2023-05-10T14:29:40;21.30;99.90
44990;DHT22;30723;51.206;3.326;2023-05-10T14:32:06;21.50;99.90
44990;DHT22;30723;51.206;3.326;2023-05-10T14:34:32;21.30;99.90
44990;DHT22;30723;51.206;3.326;2023-05-10T14:36:59;21.10;99.90
44990;DHT22;30723;51.206;3.326;2023-05-10T14:39:25;20.70;99.90
44990;DHT22;30723;51.206;3.326;2023-05-10T14:41:54;20.50;99.90
44990;DHT22;30723;51.206;3.326;2023-05-10T14:44:22;20.60;99.90
44990;DHT22;30723;51.206;3.326;2023-05-10T14:46:48;20.20;99.90
44990;DHT22;30723;51.206;3.326;2023-05-10T14:49:16;19.90;99.90
44990;DHT22;30723;51.206;3.326;2023-05-10T14:51:42;19.50;99.90
44990;DHT22;30723;51.206;3.326;2023-05-10T14:54:08;19.20;99.90
44990;DHT22;30723;51.206;3.326;2023-05-10T14:56:34;19.10;99.90
44990;DHT22;30723;51.206;3.326;2023-05-10T14:59:01;19.00;99.90
44990;DHT22;30723;51.206;3.326;2023-05-10T15:01:29;19.10;99.90
44990;DHT22;30723;51.206;3.326;2023-05-10T15:03:55;19.10;99.90
44990;DHT22;30723;51.206;3.326;2023-05-10T15:06:31;19.20;99.90
44990;DHT22;30723;51.206;3.326;2023-05-10T15:08:58;19.30;99.90
44990;DHT22;30723;51.206;3.326;2023-05-10T15:11:25;19.40;99.90
44990;DHT22;30723;51.206;3.326;2023-05-10T15:13:50;19.40;99.90
44990;DHT22;30723;51.206;3.326;2023-05-10T15:16:17;19.60;99.90
44990;DHT22;30723;51.206;3.326;2023-05-10T15:18:43;19.70;99.90
44990;DHT22;30723;51.206;3.326;2023-05-10T15:21:11;19.50;99.90
44990;DHT22;30723;51.206;3.326;2023-05-10T15:23:37;19.60;99.90
44990;DHT22;30723;51.206;3.326;2023-05-10T15:26:12;19.70;99.90
44990;DHT22;30723;51.206;3.326;2023-05-10T15:28:39;19.80;99.90
44990;DHT22;30723;51.206;3.326;2023-05-10T15:31:05;19.70;99.90
44990;DHT22;30723;51.206;3.326;2023-05-10T15:33:31;20.00;99.90
44990;DHT22;30723;51.206;3.326;2023-05-10T15:35:58;20.10;99.90
44990;DHT22;30723;51.206;3.326;2023-05-10T15:38:24;19.80;99.90
44990;DHT22;30723;51.206;3.326;2023-05-10T15:41:00;19.80;99.90
44990;DHT22;30723;51.206;3.326;2023-05-10T15:43:26;19.80;99.90
44990;DHT22;30723;51.206;3.326;2023-05-10T15:45:53;20.00;99.90
44990;DHT22;30723;51.206;3.326;2023-05-10T15:48:19;19.90;99.90
44990;DHT22;30723;51.206;3.326;2023-05-10T15:50:46;20.30;99.90
44990;DHT22;30723;51.206;3.326;2023-05-10T15:53:13;20.30;99.90
44990;DHT22;30723;51.206;3.326;2023-05-10T15:55:38;20.70;99.90
44990;DHT22;30723;51.206;3.326;2023-05-10T15:58:05;20.90;99.90
44990;DHT22;30723;51.206;3.326;2023-05-10T16:00:32;20.90;99.90
44990;DHT22;30723;51.206;3.326;2023-05-10T16:02:59;20.60;99.90
44990;DHT22;30723;51.206;3.326;2023-05-10T16:05:26;20.70;99.90
44990;DHT22;30723;51.206;3.326;2023-05-10T16:07:54;20.30;99.90
44990;DHT22;30723;51.206;3.326;2023-05-10T16:10:21;20.10;99.90
44990;DHT22;30723;51.206;3.326;2023-05-10T16:12:48;20.20;99.90
44990;DHT22;30723;51.206;3.326;2023-05-10T16:15:14;20.20;99.90
44990;DHT22;30723;51.206;3.326;2023-05-10T16:17:40;20.20;99.90
44990;DHT22;30723;51.206;3.326;2023-05-10T16:20:09;20.00;99.90
44990;DHT22;30723;51.206;3.326;2023-05-10T16:22:36;20.00;99.90